sensor_id;sensor_type;location;lat;lon;timestamp;pressure;altitude;pressure_sealevel;temperature;humidity
8280;BME280;8335;42.646;23.380;2023-07-29T00:01:40;146450.56;;;19.77;59.32
8280;BME280;8335;42.646;23.380;2023-07-29T00:04:07;146431.78;;;19.69;59.12
8280;BME280;8335;42.646;23.380;2023-07-29T00:06:34;146421.81;;;19.65;59.56
8280;BME280;8335;42.646;23.380;2023-07-29T00:09:02;146415.53;;;19.63;59.66
8280;BME280;8335;42.646;23.380;2023-07-29T00:11:29;146401.75;;;19.57;59.29
8280;BME280;8335;42.646;23.380;2023-07-29T00:13:55;146401.75;;;19.57;59.34
8280;BME280;8335;42.646;23.380;2023-07-29T00:16:22;146410.53;;;19.61;58.87
8280;BME280;8335;42.646;23.380;2023-07-29T00:18:50;146385.47;;;19.50;59.33
8280;BME280;8335;42.646;23.380;2023-07-29T00:21:18;146347.88;;;19.35;59.79
8280;BME280;8335;42.646;23.380;2023-07-29T00:23:45;146321.63;;;19.24;60.17
8280;BME280;8335;42.646;23.380;2023-07-29T00:26:12;146311.59;;;19.20;60.53
8280;BME280;8335;42.646;23.380;2023-07-29T00:28:38;146289.06;;;19.11;60.89
8280;BME280;8335;42.646;23.380;2023-07-29T00:31:05;146267.81;;;19.03;61.32
8280;BME280;8335;42.646;23.380;2023-07-29T00:33:32;146249.03;;;18.95;61.72
8280;BME280;8335;42.646;23.380;2023-07-29T00:36:00;146244.00;;;18.93;62.04
8280;BME280;8335;42.646;23.380;2023-07-29T00:38:28;146237.78;;;18.90;62.32
8280;BME280;8335;42.646;23.380;2023-07-29T00:40:56;146225.25;;;18.85;62.49
8280;BME280;8335;42.646;23.380;2023-07-29T00:43:23;146215.25;;;18.81;62.95
8280;BME280;8335;42.646;23.380;2023-07-29T00:45:50;146221.50;;;18.84;63.15
8280;BME280;8335;42.646;23.380;2023-07-29T00:48:17;146220.25;;;18.83;63.32
8280;BME280;8335;42.646;23.380;2023-07-29T00:50:44;146221.50;;;18.84;63.37
8280;BME280;8335;42.646;23.380;2023-07-29T00:53:12;146224.00;;;18.85;63.16
8280;BME280;8335;42.646;23.380;2023-07-29T00:55:39;146207.72;;;18.78;63.31
8280;BME280;8335;42.646;23.380;2023-07-29T00:58:06;146194.00;;;18.73;63.76
8280;BME280;8335;42.646;23.380;2023-07-29T01:00:33;146183.97;;;18.68;64.20
8280;BME280;8335;42.646;23.380;2023-07-29T01:03:00;146173.91;;;18.64;64.54
8280;BME280;8335;42.646;23.380;2023-07-29T01:05:32;146171.41;;;18.63;64.30
8280;BME280;8335;42.646;23.380;2023-07-29T01:08:05;146175.19;;;18.65;64.27
8280;BME280;8335;42.646;23.380;2023-07-29T01:10:47;146163.94;;;18.60;64.72
8280;BME280;8335;42.646;23.380;2023-07-29T01:13:19;146132.66;;;18.48;65.44
8280;BME280;8335;42.646;23.380;2023-07-29T01:15:54;146148.91;;;18.54;65.16
8280;BME280;8335;42.646;23.380;2023-07-29T01:18:25;146133.91;;;18.48;65.42
8280;BME280;8335;42.646;23.380;2023-07-29T01:20:54;146112.63;;;18.39;65.08
8280;BME280;8335;42.646;23.380;2023-07-29T01:23:25;146136.38;;;18.49;64.76
8280;BME280;8335;42.646;23.380;2023-07-29T01:25:51;146137.63;;;18.50;64.44
8280;BME280;8335;42.646;23.380;2023-07-29T01:28:18;146111.41;;;18.39;64.64
8280;BME280;8335;42.646;23.380;2023-07-29T01:30:49;146102.63;;;18.35;65.05
8280;BME280;8335;42.646;23.380;2023-07-29T01:33:21;146063.84;;;18.20;65.32
8280;BME280;8335;42.646;23.380;2023-07-29T01:35:51;146073.88;;;18.24;65.34
8280;BME280;8335;42.646;23.380;2023-07-29T01:38:21;146073.88;;;18.24;66.35
8280;BME280;8335;42.646;23.380;2023-07-29T01:40:52;146076.38;;;18.25;66.56
8280;BME280;8335;42.646;23.380;2023-07-29T01:43:20;146060.13;;;18.18;66.87
8280;BME280;8335;42.646;23.380;2023-07-29T01:45:49;146066.34;;;18.21;66.69
8280;BME280;8335;42.646;23.380;2023-07-29T01:48:16;146073.88;;;18.24;66.94
8280;BME280;8335;42.646;23.380;2023-07-29T01:50:42;146060.13;;;18.18;66.84
8280;BME280;8335;42.646;23.380;2023-07-29T01:53:09;146075.13;;;18.24;66.89
8280;BME280;8335;42.646;23.380;2023-07-29T01:55:36;146076.38;;;18.25;67.09
8280;BME280;8335;42.646;23.380;2023-07-29T01:58:04;146081.38;;;18.27;66.59
8280;BME280;8335;42.646;23.380;2023-07-29T02:00:31;146057.63;;;18.17;67.38
8280;BME280;8335;42.646;23.380;2023-07-29T02:02:58;146068.91;;;18.22;67.02
8280;BME280;8335;42.646;23.380;2023-07-29T02:05:25;146062.59;;;18.19;66.18
8280;BME280;8335;42.646;23.380;2023-07-29T02:07:51;146062.59;;;18.19;65.88
8280;BME280;8335;42.646;23.380;2023-07-29T02:10:18;146045.09;;;18.12;65.74
8280;BME280;8335;42.646;23.380;2023-07-29T02:12:45;146052.63;;;18.15;66.04
8280;BME280;8335;42.646;23.380;2023-07-29T02:15:13;146042.59;;;18.11;66.51
8280;BME280;8335;42.646;23.380;2023-07-29T02:17:41;146013.84;;;17.99;66.67
8280;BME280;8335;42.646;23.380;2023-07-29T02:20:09;146012.59;;;17.99;66.85
8280;BME280;8335;42.646;23.380;2023-07-29T02:22:36;146002.63;;;17.95;67.33
8280;BME280;8335;42.646;23.380;2023-07-29T02:25:03;145973.84;;;17.83;67.82
8280;BME280;8335;42.646;23.380;2023-07-29T02:27:30;145958.84;;;17.77;68.26
8280;BME280;8335;42.646;23.380;2023-07-29T02:29:58;145946.38;;;17.72;68.87
8280;BME280;8335;42.646;23.380;2023-07-29T02:32:26;145946.38;;;17.72;69.08
8280;BME280;8335;42.646;23.380;2023-07-29T02:34:53;145930.06;;;17.65;69.27
8280;BME280;8335;42.646;23.380;2023-07-29T02:37:20;145906.28;;;17.55;69.71
8280;BME280;8335;42.646;23.380;2023-07-29T02:39:47;145905.03;;;17.55;69.63
8280;BME280;8335;42.646;23.380;2023-07-29T02:42:14;145855.03;;;17.34;70.51
8280;BME280;8335;42.646;23.380;2023-07-29T02:44:41;145860.06;;;17.37;70.77
8280;BME280;8335;42.646;23.380;2023-07-29T02:47:07;145860.06;;;17.37;70.96
8280;BME280;8335;42.646;23.380;2023-07-29T02:49:36;145850.06;;;17.32;70.48
8280;BME280;8335;42.646;23.380;2023-07-29T02:52:03;145863.81;;;17.38;70.91
8280;BME280;8335;42.646;23.380;2023-07-29T02:54:30;145837.56;;;17.27;71.23
8280;BME280;8335;42.646;23.380;2023-07-29T02:56:57;145853.81;;;17.34;71.13
8280;BME280;8335;42.646;23.380;2023-07-29T02:59:24;145851.31;;;17.33;71.11
8280;BME280;8335;42.646;23.380;2023-07-29T03:01:51;145845.06;;;17.30;71.26
8280;BME280;8335;42.646;23.380;2023-07-29T03:04:18;145847.56;;;17.31;71.66
8280;BME280;8335;42.646;23.380;2023-07-29T03:06:47;145861.31;;;17.37;71.39
8280;BME280;8335;42.646;23.380;2023-07-29T03:09:14;145877.56;;;17.44;70.64
8280;BME280;8335;42.646;23.380;2023-07-29T03:11:40;145877.56;;;17.44;70.10
8280;BME280;8335;42.646;23.380;2023-07-29T03:14:07;145866.31;;;17.39;70.32
8280;BME280;8335;42.646;23.380;2023-07-29T03:16:34;145895.06;;;17.51;70.17
8280;BME280;8335;42.646;23.380;2023-07-29T03:19:01;145908.78;;;17.56;70.12
8280;BME280;8335;42.646;23.380;2023-07-29T03:21:28;145926.28;;;17.64;69.61
8280;BME280;8335;42.646;23.380;2023-07-29T03:23:56;145932.56;;;17.66;69.31
8280;BME280;8335;42.646;23.380;2023-07-29T03:26:22;145921.28;;;17.61;69.28
8280;BME280;8335;42.646;23.380;2023-07-29T03:28:49;145932.56;;;17.66;69.68
8280;BME280;8335;42.646;23.380;2023-07-29T03:31:16;145958.84;;;17.77;69.53
8280;BME280;8335;42.646;23.380;2023-07-29T03:33:43;145995.09;;;17.92;69.30
8280;BME280;8335;42.646;23.380;2023-07-29T03:36:10;146055.13;;;18.16;68.43
8280;BME280;8335;42.646;23.380;2023-07-29T03:38:36;146098.88;;;18.34;67.23
8280;BME280;8335;42.646;23.380;2023-07-29T03:41:06;146161.44;;;18.59;67.18
8280;BME280;8335;42.646;23.380;2023-07-29T03:43:34;146251.53;;;18.96;65.59
8280;BME280;8335;42.646;23.380;2023-07-29T03:46:00;146354.16;;;19.38;64.07
8280;BME280;8335;42.646;23.380;2023-07-29T03:48:29;146431.78;;;19.69;62.71
8280;BME280;8335;42.646;23.380;2023-07-29T03:50:56;146510.69;;;20.01;61.36
8280;BME280;8335;42.646;23.380;2023-07-29T03:53:23;146543.25;;;20.15;60.73
8280;BME280;8335;42.646;23.380;2023-07-29T03:55:50;146618.44;;;20.45;59.81
8280;BME280;8335;42.646;23.380;2023-07-29T03:58:18;146694.81;;;20.76;58.54
8280;BME280;8335;42.646;23.380;2023-07-29T04:00:45;146778.78;;;21.10;57.61
8280;BME280;8335;42.646;23.380;2023-07-29T04:03:11;146894.13;;;21.57;56.13
8280;BME280;8335;42.646;23.380;2023-07-29T04:05:38;147009.47;;;22.04;54.59
8280;BME280;8335;42.646;23.380;2023-07-29T04:08:05;147083.50;;;22.34;53.38
8280;BME280;8335;42.646;23.380;2023-07-29T04:10:32;147146.22;;;22.60;52.17
8280;BME280;8335;42.646;23.380;2023-07-29T04:13:00;147193.91;;;22.79;52.33
8280;BME280;8335;42.646;23.380;2023-07-29T04:15:28;147308.13;;;23.25;50.40
8280;BME280;8335;42.646;23.380;2023-07-29T04:17:55;147461.31;;;23.87;48.67
8280;BME280;8335;42.646;23.380;2023-07-29T04:20:22;147604.53;;;24.46;47.12
8280;BME280;8335;42.646;23.380;2023-07-29T04:22:49;147752.78;;;25.06;45.69
8280;BME280;8335;42.646;23.380;2023-07-29T04:25:15;147925.03;;;25.75;43.66
8280;BME280;8335;42.646;23.380;2023-07-29T04:27:42;148072.09;;;26.35;42.61
8280;BME280;8335;42.646;23.380;2023-07-29T04:30:09;148231.91;;;27.00;40.94
8280;BME280;8335;42.646;23.380;2023-07-29T04:32:38;148342.72;;;27.45;39.34
8280;BME280;8335;42.646;23.380;2023-07-29T04:35:05;148461.03;;;27.92;38.26
8280;BME280;8335;42.646;23.380;2023-07-29T04:37:32;148546.66;;;28.27;37.54
8280;BME280;8335;42.646;23.380;2023-07-29T04:39:59;148639.91;;;28.65;37.14
8280;BME280;8335;42.646;23.380;2023-07-29T04:42:26;148719.28;;;28.97;36.45
8280;BME280;8335;42.646;23.380;2023-07-29T04:44:53;148830.13;;;29.42;35.21
8280;BME280;8335;42.646;23.380;2023-07-29T04:47:19;148967.56;;;29.97;33.64
8280;BME280;8335;42.646;23.380;2023-07-29T04:49:48;149234.94;;;31.05;32.65
8280;BME280;8335;42.646;23.380;2023-07-29T04:52:14;149367.47;;;31.59;31.06
8280;BME280;8335;42.646;23.380;2023-07-29T04:54:41;149550.53;;;32.33;30.22
8280;BME280;8335;42.646;23.380;2023-07-29T04:57:08;149715.94;;;32.99;28.98
8280;BME280;8335;42.646;23.380;2023-07-29T04:59:35;149852.41;;;33.54;28.71
8280;BME280;8335;42.646;23.380;2023-07-29T05:02:02;150043.22;;;34.31;27.54
8280;BME280;8335;42.646;23.380;2023-07-29T05:04:29;150193.69;;;34.92;26.92
8280;BME280;8335;42.646;23.380;2023-07-29T05:06:57;150207.59;;;34.97;26.22
8280;BME280;8335;42.646;23.380;2023-07-29T05:09:24;150251.88;;;35.15;26.29
8280;BME280;8335;42.646;23.380;2023-07-29T05:11:51;150421.34;;;35.83;25.16
8280;BME280;8335;42.646;23.380;2023-07-29T05:14:18;150440.34;;;35.91;24.82
8280;BME280;8335;42.646;23.380;2023-07-29T05:16:44;150313.81;;;35.40;25.72
8280;BME280;8335;42.646;23.380;2023-07-29T05:19:11;150374.53;;;35.65;25.48
8280;BME280;8335;42.646;23.380;2023-07-29T05:21:38;150421.34;;;35.83;25.15
8280;BME280;8335;42.646;23.380;2023-07-29T05:24:07;150479.56;;;36.07;25.36
8280;BME280;8335;42.646;23.380;2023-07-29T05:26:34;150432.75;;;35.88;25.34
8280;BME280;8335;42.646;23.380;2023-07-29T05:29:00;150487.16;;;36.10;25.35
8280;BME280;8335;42.646;23.380;2023-07-29T05:31:27;150537.78;;;36.30;25.06
8280;BME280;8335;42.646;23.380;2023-07-29T05:33:54;150561.84;;;36.40;24.42
8280;BME280;8335;42.646;23.380;2023-07-29T05:36:21;150597.25;;;36.54;24.57
8280;BME280;8335;42.646;23.380;2023-07-29T05:38:48;150639.00;;;36.71;24.89
8280;BME280;8335;42.646;23.380;2023-07-29T05:41:16;150674.47;;;36.85;24.40
8280;BME280;8335;42.646;23.380;2023-07-29T05:43:42;150665.59;;;36.82;23.83
8280;BME280;8335;42.646;23.380;2023-07-29T05:46:10;150813.75;;;37.41;23.68
8280;BME280;8335;42.646;23.380;2023-07-29T05:48:37;150802.38;;;37.37;23.63
8280;BME280;8335;42.646;23.380;2023-07-29T05:51:04;150866.91;;;37.63;23.82
8280;BME280;8335;42.646;23.380;2023-07-29T05:53:30;150968.25;;;38.04;23.57
8280;BME280;8335;42.646;23.380;2023-07-29T05:55:57;151041.75;;;38.33;22.63
8280;BME280;8335;42.646;23.380;2023-07-29T05:58:25;151075.94;;;38.47;22.77
8280;BME280;8335;42.646;23.380;2023-07-29T06:00:52;151130.41;;;38.69;22.59
8280;BME280;8335;42.646;23.380;2023-07-29T06:03:19;151163.41;;;38.82;22.44
8280;BME280;8335;42.646;23.380;2023-07-29T06:05:46;151203.91;;;38.98;22.34
8280;BME280;8335;42.646;23.380;2023-07-29T06:08:13;151281.22;;;39.29;22.22
8280;BME280;8335;42.646;23.380;2023-07-29T06:10:40;151344.59;;;39.55;22.05
8280;BME280;8335;42.646;23.380;2023-07-29T06:13:06;151405.44;;;39.79;21.58
8280;BME280;8335;42.646;23.380;2023-07-29T06:15:35;151484.13;;;40.11;21.65
8280;BME280;8335;42.646;23.380;2023-07-29T06:18:01;151523.41;;;40.27;20.82
8280;BME280;8335;42.646;23.380;2023-07-29T06:20:28;151509.44;;;40.21;20.98
8280;BME280;8335;42.646;23.380;2023-07-29T06:22:55;151551.31;;;40.38;20.62
8280;BME280;8335;42.646;23.380;2023-07-29T06:25:22;151566.53;;;40.44;21.32
8280;BME280;8335;42.646;23.380;2023-07-29T06:27:49;151619.81;;;40.65;20.93
8280;BME280;8335;42.646;23.380;2023-07-29T06:30:15;151498.06;;;40.16;20.36
8280;BME280;8335;42.646;23.380;2023-07-29T06:32:43;151430.81;;;39.89;20.98
8280;BME280;8335;42.646;23.380;2023-07-29T06:35:10;151432.09;;;39.90;21.15
8280;BME280;8335;42.646;23.380;2023-07-29T06:37:37;151492.97;;;40.14;21.02
8280;BME280;8335;42.646;23.380;2023-07-29T06:40:05;151503.13;;;40.19;20.99
8280;BME280;8335;42.646;23.380;2023-07-29T06:42:32;151446.03;;;39.96;21.03
8280;BME280;8335;42.646;23.380;2023-07-29T06:44:59;151423.19;;;39.86;20.76
8280;BME280;8335;42.646;23.380;2023-07-29T06:47:26;151357.34;;;39.60;21.52
8280;BME280;8335;42.646;23.380;2023-07-29T06:49:54;151205.19;;;38.99;21.77
8280;BME280;8335;42.646;23.380;2023-07-29T06:52:21;150975.84;;;38.07;22.50
8280;BME280;8335;42.646;23.380;2023-07-29T06:54:48;150974.56;;;38.06;22.74
8280;BME280;8335;42.646;23.380;2023-07-29T06:57:15;150974.56;;;38.06;22.68
8280;BME280;8335;42.646;23.380;2023-07-29T06:59:41;151088.63;;;38.52;22.37
8280;BME280;8335;42.646;23.380;2023-07-29T07:02:09;151216.59;;;39.03;22.10
8280;BME280;8335;42.646;23.380;2023-07-29T07:04:36;151314.19;;;39.43;21.87
8280;BME280;8335;42.646;23.380;2023-07-29T07:07:05;151390.28;;;39.73;21.62
8280;BME280;8335;42.646;23.380;2023-07-29T07:09:32;151390.28;;;39.73;21.55
8280;BME280;8335;42.646;23.380;2023-07-29T07:11:58;151354.81;;;39.59;21.54
8280;BME280;8335;42.646;23.380;2023-07-29T07:14:25;151376.34;;;39.68;21.65
8280;BME280;8335;42.646;23.380;2023-07-29T07:16:52;151457.41;;;40.00;21.57
8280;BME280;8335;42.646;23.380;2023-07-29T07:19:19;151525.91;;;40.28;21.15
8280;BME280;8335;42.646;23.380;2023-07-29T07:21:45;151612.19;;;40.62;20.45
8280;BME280;8335;42.646;23.380;2023-07-29T07:24:13;151680.72;;;40.90;20.76
8280;BME280;8335;42.646;23.380;2023-07-29T07:26:40;151552.56;;;40.38;21.30
8280;BME280;8335;42.646;23.380;2023-07-29T07:29:07;151236.84;;;39.12;21.61
8280;BME280;8335;42.646;23.380;2023-07-29T07:31:34;151113.94;;;38.62;22.33
8280;BME280;8335;42.646;23.380;2023-07-29T07:34:01;151188.69;;;38.92;22.65
8280;BME280;8335;42.646;23.380;2023-07-29T07:36:29;151059.47;;;38.40;23.02
8280;BME280;8335;42.646;23.380;2023-07-29T07:38:56;151150.72;;;38.77;22.51
8280;BME280;8335;42.646;23.380;2023-07-29T07:41:24;151305.34;;;39.39;21.82
8280;BME280;8335;42.646;23.380;2023-07-29T07:43:51;151428.31;;;39.88;21.66
8280;BME280;8335;42.646;23.380;2023-07-29T07:46:17;151508.19;;;40.21;21.29
8280;BME280;8335;42.646;23.380;2023-07-29T07:48:44;151594.44;;;40.55;21.50
8280;BME280;8335;42.646;23.380;2023-07-29T07:51:11;151591.91;;;40.54;20.84
8280;BME280;8335;42.646;23.380;2023-07-29T07:53:38;151479.06;;;40.09;21.25
8280;BME280;8335;42.646;23.380;2023-07-29T07:56:05;151600.75;;;40.58;20.98
8280;BME280;8335;42.646;23.380;2023-07-29T07:58:34;151635.00;;;40.71;21.41
8280;BME280;8335;42.646;23.380;2023-07-29T08:01:02;151628.66;;;40.69;21.15
8280;BME280;8335;42.646;23.380;2023-07-29T08:03:28;151533.56;;;40.31;20.95
8280;BME280;8335;42.646;23.380;2023-07-29T08:05:55;151518.34;;;40.25;21.02
8280;BME280;8335;42.646;23.380;2023-07-29T08:08:22;151309.13;;;39.41;21.97
8280;BME280;8335;42.646;23.380;2023-07-29T08:10:48;151264.78;;;39.23;22.20
8280;BME280;8335;42.646;23.380;2023-07-29T08:13:15;151116.47;;;38.63;23.43
8280;BME280;8335;42.646;23.380;2023-07-29T08:15:47;151108.88;;;38.60;22.79
8280;BME280;8335;42.646;23.380;2023-07-29T08:18:14;151131.66;;;38.69;22.51
8280;BME280;8335;42.646;23.380;2023-07-29T08:20:41;151145.66;;;38.75;22.49
8280;BME280;8335;42.646;23.380;2023-07-29T08:23:07;151102.53;;;38.58;22.85
8280;BME280;8335;42.646;23.380;2023-07-29T08:25:34;151214.06;;;39.02;22.25
8280;BME280;8335;42.646;23.380;2023-07-29T08:28:01;151145.66;;;38.75;22.05
8280;BME280;8335;42.646;23.380;2023-07-29T08:30:28;151122.81;;;38.66;22.33
8280;BME280;8335;42.646;23.380;2023-07-29T08:32:56;151254.66;;;39.19;21.75
8280;BME280;8335;42.646;23.380;2023-07-29T08:35:22;151170.97;;;38.85;21.72
8280;BME280;8335;42.646;23.380;2023-07-29T08:37:49;151382.66;;;39.70;21.60
8280;BME280;8335;42.646;23.380;2023-07-29T08:40:16;151416.88;;;39.84;21.06
8280;BME280;8335;42.646;23.380;2023-07-29T08:42:45;151451.09;;;39.98;21.09
8280;BME280;8335;42.646;23.380;2023-07-29T08:45:16;151402.94;;;39.78;21.15
8280;BME280;8335;42.646;23.380;2023-07-29T08:47:44;151315.44;;;39.43;21.53
8280;BME280;8335;42.646;23.380;2023-07-29T08:50:13;151415.63;;;39.83;21.35
8280;BME280;8335;42.646;23.380;2023-07-29T08:52:40;151314.19;;;39.43;21.08
8280;BME280;8335;42.646;23.380;2023-07-29T08:55:08;151285.06;;;39.31;21.16
8280;BME280;8335;42.646;23.380;2023-07-29T08:57:35;151272.38;;;39.26;20.50
8280;BME280;8335;42.646;23.380;2023-07-29T09:00:02;151314.19;;;39.43;21.03
8280;BME280;8335;42.646;23.380;2023-07-29T09:02:30;151260.97;;;39.21;20.19
8280;BME280;8335;42.646;23.380;2023-07-29T09:04:57;151116.47;;;38.63;20.65
8280;BME280;8335;42.646;23.380;2023-07-29T09:07:25;151065.78;;;38.43;20.68
8280;BME280;8335;42.646;23.380;2023-07-29T09:09:52;151221.66;;;39.05;20.41
8280;BME280;8335;42.646;23.380;2023-07-29T09:12:19;151170.97;;;38.85;20.93
8280;BME280;8335;42.646;23.380;2023-07-29T09:14:46;151233.06;;;39.10;20.73
8280;BME280;8335;42.646;23.380;2023-07-29T09:17:14;151421.94;;;39.86;20.12
8280;BME280;8335;42.646;23.380;2023-07-29T09:19:40;151577.94;;;40.49;19.72
8280;BME280;8335;42.646;23.380;2023-07-29T09:22:17;151661.66;;;40.82;19.18
8280;BME280;8335;42.646;23.380;2023-07-29T09:24:46;151628.66;;;40.69;19.32
8280;BME280;8335;42.646;23.380;2023-07-29T09:27:23;151792.34;;;41.35;19.37
8280;BME280;8335;42.646;23.380;2023-07-29T09:29:51;151873.53;;;41.67;17.92
8280;BME280;8335;42.646;23.380;2023-07-29T09:32:18;151815.19;;;41.44;17.60
8280;BME280;8335;42.646;23.380;2023-07-29T09:34:49;151797.44;;;41.37;17.52
8280;BME280;8335;42.646;23.380;2023-07-29T09:37:16;151808.84;;;41.41;17.11
8280;BME280;8335;42.646;23.380;2023-07-29T09:39:45;151826.59;;;41.48;17.44
8280;BME280;8335;42.646;23.380;2023-07-29T09:42:17;151763.16;;;41.23;17.38
8280;BME280;8335;42.646;23.380;2023-07-29T09:44:44;151886.28;;;41.72;16.86
8280;BME280;8335;42.646;23.380;2023-07-29T09:47:19;151996.69;;;42.17;17.31
8280;BME280;8335;42.646;23.380;2023-07-29T09:49:46;152029.69;;;42.30;16.54
8280;BME280;8335;42.646;23.380;2023-07-29T09:52:15;151930.66;;;41.90;16.09
8280;BME280;8335;42.646;23.380;2023-07-29T09:54:42;151806.31;;;41.40;16.74
8280;BME280;8335;42.646;23.380;2023-07-29T09:57:10;151667.97;;;40.85;16.99
8280;BME280;8335;42.646;23.380;2023-07-29T09:59:37;151726.38;;;41.08;17.89
8280;BME280;8335;42.646;23.380;2023-07-29T10:02:04;151742.81;;;41.15;17.64
8280;BME280;8335;42.646;23.380;2023-07-29T10:04:36;151501.84;;;40.18;17.55
8280;BME280;8335;42.646;23.380;2023-07-29T10:07:03;151405.44;;;39.79;18.58
8280;BME280;8335;42.646;23.380;2023-07-29T10:09:31;151473.94;;;40.07;18.12
8280;BME280;8335;42.646;23.380;2023-07-29T10:11:58;151506.91;;;40.20;17.89
8280;BME280;8335;42.646;23.380;2023-07-29T10:14:27;151462.56;;;40.02;18.00
8280;BME280;8335;42.646;23.380;2023-07-29T10:16:58;151300.28;;;39.37;18.11
8280;BME280;8335;42.646;23.380;2023-07-29T10:19:26;151197.59;;;38.96;18.60
8280;BME280;8335;42.646;23.380;2023-07-29T10:21:54;151250.84;;;39.17;18.58
8280;BME280;8335;42.646;23.380;2023-07-29T10:24:25;151268.59;;;39.24;19.12
8280;BME280;8335;42.646;23.380;2023-07-29T10:26:58;151208.97;;;39.00;18.99
8280;BME280;8335;42.646;23.380;2023-07-29T10:29:30;150911.28;;;37.81;19.82
8280;BME280;8335;42.646;23.380;2023-07-29T10:32:01;150808.69;;;37.39;19.99
8280;BME280;8335;42.646;23.380;2023-07-29T10:34:29;150839.09;;;37.52;19.20
8280;BME280;8335;42.646;23.380;2023-07-29T10:36:56;150773.22;;;37.25;20.58
8280;BME280;8335;42.646;23.380;2023-07-29T10:39:24;150715.00;;;37.02;20.90
8280;BME280;8335;42.646;23.380;2023-07-29T10:41:55;150675.75;;;36.86;20.65
8280;BME280;8335;42.646;23.380;2023-07-29T10:44:51;150664.34;;;36.81;21.56
8280;BME280;8335;42.646;23.380;2023-07-29T10:47:20;150550.41;;;36.35;21.71
8280;BME280;8335;42.646;23.380;2023-07-29T10:49:50;150537.78;;;36.30;21.76
8280;BME280;8335;42.646;23.380;2023-07-29T10:52:32;150525.13;;;36.25;21.86
8280;BME280;8335;42.646;23.380;2023-07-29T10:55:23;150479.56;;;36.07;21.42
8280;BME280;8335;42.646;23.380;2023-07-29T10:57:50;150522.59;;;36.24;21.68
8280;BME280;8335;42.646;23.380;2023-07-29T11:00:19;150525.13;;;36.25;21.27
8280;BME280;8335;42.646;23.380;2023-07-29T11:02:58;150253.13;;;35.16;21.38
8280;BME280;8335;42.646;23.380;2023-07-29T11:05:25;150259.44;;;35.18;22.49
8280;BME280;8335;42.646;23.380;2023-07-29T11:07:52;150208.88;;;34.98;22.67
8280;BME280;8335;42.646;23.380;2023-07-29T11:10:19;150135.53;;;34.68;23.16
8280;BME280;8335;42.646;23.380;2023-07-29T11:12:46;150057.13;;;34.37;22.69
8280;BME280;8335;42.646;23.380;2023-07-29T11:15:20;149947.16;;;33.92;23.17
8280;BME280;8335;42.646;23.380;2023-07-29T11:17:49;149887.75;;;33.68;24.00
8280;BME280;8335;42.646;23.380;2023-07-29T11:20:17;149848.63;;;33.53;23.48
8280;BME280;8335;42.646;23.380;2023-07-29T11:22:45;149808.16;;;33.36;23.73
8280;BME280;8335;42.646;23.380;2023-07-29T11:25:13;149790.50;;;33.29;23.52
8280;BME280;8335;42.646;23.380;2023-07-29T11:27:41;149734.88;;;33.07;23.82
8280;BME280;8335;42.646;23.380;2023-07-29T11:30:09;149671.72;;;32.81;23.59
8280;BME280;8335;42.646;23.380;2023-07-29T11:32:39;149739.97;;;33.09;23.42
8280;BME280;8335;42.646;23.380;2023-07-29T11:35:07;149751.31;;;33.13;24.34
8280;BME280;8335;42.646;23.380;2023-07-29T11:37:36;149743.75;;;33.10;24.99
8280;BME280;8335;42.646;23.380;2023-07-29T11:40:04;149748.78;;;33.12;24.77
8280;BME280;8335;42.646;23.380;2023-07-29T11:42:32;149737.44;;;33.08;24.54
8280;BME280;8335;42.646;23.380;2023-07-29T11:44:59;149699.53;;;32.93;24.33
8280;BME280;8335;42.646;23.380;2023-07-29T11:47:26;149654.06;;;32.74;24.65
8280;BME280;8335;42.646;23.380;2023-07-29T11:49:58;149667.94;;;32.80;23.89
8280;BME280;8335;42.646;23.380;2023-07-29T11:52:25;149635.13;;;32.67;25.06
8280;BME280;8335;42.646;23.380;2023-07-29T11:54:53;149683.09;;;32.86;25.32
8280;BME280;8335;42.646;23.380;2023-07-29T11:57:20;149721.03;;;33.01;24.32
8280;BME280;8335;42.646;23.380;2023-07-29T11:59:47;149700.78;;;32.93;25.17
8280;BME280;8335;42.646;23.380;2023-07-29T12:02:16;149641.41;;;32.69;24.84
8280;BME280;8335;42.646;23.380;2023-07-29T12:04:44;149597.25;;;32.51;24.58
8280;BME280;8335;42.646;23.380;2023-07-29T12:07:14;149570.72;;;32.41;25.52
8280;BME280;8335;42.646;23.380;2023-07-29T12:09:42;149537.84;;;32.27;25.61
8280;BME280;8335;42.646;23.380;2023-07-29T12:12:09;149607.31;;;32.55;24.89
8280;BME280;8335;42.646;23.380;2023-07-29T12:14:36;149616.19;;;32.59;25.56
8280;BME280;8335;42.646;23.380;2023-07-29T12:17:05;149647.72;;;32.72;25.84
8280;BME280;8335;42.646;23.380;2023-07-29T12:19:33;149630.03;;;32.65;25.63
8280;BME280;8335;42.646;23.380;2023-07-29T12:22:01;149633.88;;;32.66;25.34
8280;BME280;8335;42.646;23.380;2023-07-29T12:24:31;149612.34;;;32.57;25.76
8280;BME280;8335;42.646;23.380;2023-07-29T12:26:58;149579.59;;;32.44;24.82
8280;BME280;8335;42.646;23.380;2023-07-29T12:29:25;149563.16;;;32.38;25.63
8280;BME280;8335;42.646;23.380;2023-07-29T12:31:57;149498.72;;;32.12;25.16
8280;BME280;8335;42.646;23.380;2023-07-29T12:34:26;149544.19;;;32.30;25.30
8280;BME280;8335;42.646;23.380;2023-07-29T12:36:54;149458.38;;;31.95;25.56
8280;BME280;8335;42.646;23.380;2023-07-29T12:39:22;149585.88;;;32.47;25.63
8280;BME280;8335;42.646;23.380;2023-07-29T12:41:51;149640.16;;;32.69;25.38
8280;BME280;8335;42.646;23.380;2023-07-29T12:44:18;149688.19;;;32.88;25.32
8280;BME280;8335;42.646;23.380;2023-07-29T12:46:45;149747.53;;;33.12;25.24
8280;BME280;8335;42.646;23.380;2023-07-29T12:49:12;149779.09;;;33.25;24.17
8280;BME280;8335;42.646;23.380;2023-07-29T12:51:39;149785.41;;;33.27;23.68
8280;BME280;8335;42.646;23.380;2023-07-29T12:54:05;149808.16;;;33.36;23.57
8280;BME280;8335;42.646;23.380;2023-07-29T12:56:33;149798.03;;;33.32;24.02
8280;BME280;8335;42.646;23.380;2023-07-29T12:59:02;149800.56;;;33.33;24.20
8280;BME280;8335;42.646;23.380;2023-07-29T13:01:29;149796.78;;;33.32;23.66
8280;BME280;8335;42.646;23.380;2023-07-29T13:03:56;149803.09;;;33.34;24.42